createdAt,value
2023-11-12T00:00:00.061Z,9.65
2023-11-12T00:04:03.339Z,6.30
2023-11-12T00:08:05.405Z,5.90
2023-11-12T00:12:09.325Z,5.07
2023-11-12T00:16:11.599Z,6.88
2023-11-12T00:20:19.431Z,7.27
2023-11-12T00:24:22.770Z,7.90
2023-11-12T00:28:24.465Z,8.15
2023-11-12T00:32:27.157Z,6.15
2023-11-12T00:36:28.999Z,6.88
2023-11-12T00:40:33.988Z,6.83
2023-11-12T00:44:37.076Z,8.18
2023-11-12T00:48:39.265Z,7.40
2023-11-12T00:52:41.137Z,8.07
2023-11-12T00:56:43.004Z,6.38
2023-11-12T01:00:44.830Z,8.55
2023-11-12T01:04:47.771Z,7.72
2023-11-12T01:08:49.739Z,8.38
2023-11-12T01:17:07.202Z,6.35
2023-11-12T01:21:10.548Z,8.97
2023-11-12T01:25:13.700Z,7.00
2023-11-12T01:29:15.771Z,7.80
2023-11-12T01:33:20.524Z,8.43
2023-11-12T01:37:22.305Z,8.20
2023-11-12T01:41:25.114Z,6.87
2023-11-12T01:45:26.899Z,7.13
2023-11-12T01:49:28.756Z,8.68
2023-11-12T01:53:32.452Z,7.78
2023-11-12T01:57:35.556Z,7.50
2023-11-12T02:01:37.518Z,8.52
2023-11-12T02:05:39.706Z,6.13
2023-11-12T02:09:43.864Z,8.55
2023-11-12T02:13:46.432Z,7.38
2023-11-12T02:17:48.762Z,7.63
2023-11-12T02:21:50.753Z,8.43
2023-11-12T02:25:53.378Z,8.25
2023-11-12T02:29:55.279Z,9.68
2023-11-12T02:33:57.097Z,7.32
2023-11-12T02:37:59.902Z,7.40
2023-11-12T02:42:01.601Z,11.48
2023-11-12T02:46:05.705Z,6.90
2023-11-12T02:50:22.213Z,7.32
2023-11-12T02:54:24.089Z,6.47
2023-11-12T02:58:26.598Z,10.95
2023-11-12T03:02:29.108Z,7.85
2023-11-12T03:06:30.861Z,9.82
2023-11-12T03:10:35.703Z,9.15
2023-11-12T03:14:38.256Z,10.40
2023-11-12T03:18:40.168Z,8.52
2023-11-12T03:22:42.085Z,8.52
2023-11-12T03:26:44.096Z,11.32
2023-11-12T03:30:46.883Z,10.07
2023-11-12T03:34:56.767Z,10.50
2023-11-12T03:38:58.998Z,8.45
2023-11-12T03:43:02.397Z,8.10
2023-11-12T03:47:05.491Z,12.63
2023-11-12T03:51:08.752Z,8.07
2023-11-12T03:55:12.317Z,10.18
2023-11-12T03:59:14.688Z,8.53
2023-11-12T04:03:18.792Z,11.00
2023-11-12T04:07:21.525Z,8.95
2023-11-12T04:11:25.315Z,8.50
2023-11-12T04:15:27.171Z,7.57
2023-11-12T04:19:29.276Z,8.60
2023-11-12T04:23:31.037Z,4.97
2023-11-12T04:27:33.998Z,8.65
2023-11-12T04:31:37.374Z,11.02
2023-11-12T04:35:39.387Z,9.20
2023-11-12T04:39:44.051Z,10.80
2023-11-12T04:43:46.207Z,7.68
2023-11-12T04:47:48.129Z,8.38
2023-11-12T04:51:50.156Z,10.07
2023-11-12T04:55:51.883Z,10.23
2023-11-12T04:59:53.683Z,14.48
2023-11-12T05:03:55.516Z,10.98
2023-11-12T05:07:58.117Z,14.48
2023-11-12T05:12:00.033Z,12.07
2023-11-12T05:16:05.679Z,10.80
2023-11-12T05:20:08.752Z,10.30
2023-11-12T05:24:12.071Z,10.35
2023-11-12T05:28:14.032Z,9.55
2023-11-12T05:32:15.899Z,10.57
2023-11-12T05:36:18.760Z,10.68
2023-11-12T05:40:20.984Z,11.48
2023-11-12T05:44:22.812Z,10.65
2023-11-12T05:48:24.658Z,12.63
2023-11-12T05:52:27.648Z,9.07
2023-11-12T06:00:32.282Z,11.25
2023-11-12T06:04:35.195Z,10.63
2023-11-12T06:08:40.095Z,10.23
2023-11-12T06:12:42.065Z,11.95
2023-11-12T06:16:43.922Z,11.90
2023-11-12T06:20:45.684Z,11.95
2023-11-12T06:24:47.640Z,17.52
2023-11-12T06:28:50.009Z,11.98
2023-11-12T06:32:52.861Z,14.10
2023-11-12T06:36:54.730Z,12.93
2023-11-12T06:40:57.238Z,10.02
2023-11-12T06:45:00.061Z,11.48
2023-11-12T06:49:02.113Z,10.07
2023-11-12T06:53:04.689Z,10.48
2023-11-12T06:57:06.635Z,18.15
2023-11-12T07:01:08.637Z,12.67
2023-11-12T07:05:11.629Z,13.87
2023-11-12T07:13:17.118Z,12.80
2023-11-12T07:17:18.932Z,14.50
2023-11-12T07:21:31.606Z,17.92
2023-11-12T07:25:34.283Z,18.73
2023-11-12T07:29:36.943Z,15.35
2023-11-12T07:33:39.593Z,16.23
2023-11-12T07:37:44.849Z,15.13
2023-11-12T07:41:48.619Z,17.50
2023-11-12T07:45:58.300Z,20.42
2023-11-12T07:50:03.321Z,18.88
2023-11-12T07:54:06.559Z,20.45
2023-11-12T07:58:08.655Z,13.10
2023-11-12T08:02:10.578Z,17.30
2023-11-12T08:06:13.320Z,16.85
2023-11-12T08:10:15.383Z,18.92
2023-11-12T08:14:17.081Z,23.33
2023-11-12T08:22:23.915Z,19.27
2023-11-12T08:26:29.058Z,19.48
2023-11-12T08:30:30.900Z,17.48
2023-11-12T08:34:33.085Z,23.45
2023-11-12T08:38:36.298Z,21.00
2023-11-12T08:42:38.813Z,23.27
2023-11-12T08:50:43.917Z,19.73
2023-11-12T08:54:47.507Z,26.67
2023-11-12T08:58:49.318Z,27.73
2023-11-12T09:02:51.095Z,31.30
2023-11-12T09:06:53.018Z,27.90
2023-11-12T09:10:54.854Z,30.40
2023-11-12T09:14:57.555Z,26.57
2023-11-12T09:23:03.086Z,23.35
2023-11-12T09:27:06.375Z,22.65
2023-11-12T09:31:09.262Z,19.52
2023-11-12T09:39:14.439Z,18.70
2023-11-12T09:43:54.512Z,18.17
2023-11-12T09:47:56.910Z,17.02
2023-11-12T09:53:04.758Z,14.10
2023-11-12T09:57:09.672Z,11.57
2023-11-12T10:01:13.594Z,9.52
2023-11-12T10:05:16.296Z,9.43
2023-11-12T10:09:29.887Z,10.55
2023-11-12T10:13:37.914Z,7.35
2023-11-12T10:17:46.982Z,8.68
2023-11-12T10:22:48.595Z,8.25
2023-11-12T10:26:50.892Z,8.07
2023-11-12T10:30:55.624Z,6.97
2023-11-12T10:35:27.389Z,7.95
2023-11-12T10:39:36.883Z,5.43
2023-11-12T10:43:38.890Z,5.22
2023-11-12T10:47:40.881Z,4.40
2023-11-12T10:51:43.192Z,6.00
2023-11-12T10:55:46.586Z,7.80
2023-11-12T10:59:50.532Z,5.18
2023-11-12T11:03:53.451Z,5.30
2023-11-12T11:07:55.488Z,4.55
2023-11-12T11:11:58.554Z,6.77
2023-11-12T11:20:03.028Z,4.93
2023-11-12T11:24:05.882Z,5.20
2023-11-12T11:48:07.731Z,7.32
2023-11-12T11:52:12.038Z,7.90
2023-11-12T11:56:19.405Z,7.75
2023-11-12T12:00:21.208Z,7.43
2023-11-12T12:04:25.897Z,6.43
2023-11-12T12:08:28.794Z,7.10
2023-11-12T12:12:31.713Z,7.60
2023-11-12T12:16:35.195Z,9.25
2023-11-12T12:20:39.928Z,9.38
2023-11-12T12:24:41.912Z,9.13
2023-11-12T12:28:43.748Z,9.20
2023-11-12T12:32:46.397Z,8.83
2023-11-12T12:41:42.568Z,7.22
2023-11-12T12:45:57.599Z,6.23
2023-11-12T12:54:13.701Z,9.88
2023-11-12T12:58:16.157Z,8.23
2023-11-12T13:02:18.124Z,10.70
2023-11-12T13:06:20.378Z,12.25
2023-11-12T13:10:24.321Z,10.95
2023-11-12T13:14:27.178Z,11.38
2023-11-12T13:22:30.940Z,11.40
2023-11-12T13:26:34.849Z,11.93
2023-11-12T13:30:37.705Z,11.13
2023-11-12T13:34:39.601Z,12.52
2023-11-12T13:38:41.364Z,11.23
2023-11-12T13:42:46.727Z,10.43
2023-11-12T13:46:52.541Z,13.18
2023-11-12T13:50:56.978Z,14.50
2023-11-12T13:54:58.986Z,13.40
2023-11-12T13:59:02.033Z,11.37
2023-11-12T14:03:04.193Z,12.00
2023-11-12T14:07:07.219Z,10.70
2023-11-12T14:15:19.423Z,16.20
2023-11-12T14:19:21.251Z,13.20
2023-11-12T14:23:25.930Z,10.77
2023-11-12T14:27:27.988Z,12.75
2023-11-12T14:31:30.169Z,15.07
2023-11-12T14:35:33.640Z,10.00
2023-11-12T14:39:35.582Z,12.82
2023-11-12T14:43:38.849Z,12.57
2023-11-12T14:47:42.569Z,15.93
2023-11-12T14:51:47.698Z,16.42
2023-11-12T14:55:55.283Z,15.82
2023-11-12T14:59:57.976Z,17.80
2023-11-12T15:04:00.415Z,18.83
2023-11-12T15:08:02.273Z,17.30
2023-11-12T15:12:04.773Z,16.98
2023-11-12T15:16:07.171Z,19.42
2023-11-12T15:20:14.591Z,14.80
2023-11-12T15:24:16.851Z,15.60
2023-11-12T15:28:18.607Z,21.63
2023-11-12T15:32:20.304Z,18.60
2023-11-12T15:36:23.677Z,17.60
2023-11-12T15:40:25.953Z,18.50
2023-11-12T15:44:28.462Z,16.73
2023-11-12T15:48:30.571Z,18.98
2023-11-12T15:52:33.157Z,18.47
2023-11-12T15:56:35.099Z,15.55
2023-11-12T16:00:38.544Z,15.50
2023-11-12T16:04:41.650Z,16.48
2023-11-12T16:08:51.725Z,20.40
2023-11-12T16:12:59.019Z,20.15
2023-11-12T16:17:00.879Z,13.60
2023-11-12T16:21:02.926Z,14.70
2023-11-12T16:25:09.985Z,18.83
2023-11-12T16:29:12.569Z,18.17
2023-11-12T16:33:14.431Z,20.20
2023-11-12T16:37:16.202Z,20.85
2023-11-12T16:41:18.528Z,22.55
2023-11-12T16:45:20.459Z,17.85
2023-11-12T16:49:22.524Z,17.73
2023-11-12T16:53:29.545Z,16.92
2023-11-12T16:57:31.972Z,16.23
2023-11-12T17:01:33.915Z,18.98
2023-11-12T17:05:36.189Z,21.63
2023-11-12T17:09:39.061Z,21.17
2023-11-12T17:17:43.091Z,18.73
2023-11-12T17:25:51.147Z,22.52
2023-11-12T17:29:52.945Z,16.85
2023-11-12T17:33:58.571Z,19.42
2023-11-12T17:38:00.297Z,18.75
2023-11-12T17:42:02.144Z,19.98
2023-11-12T17:46:06.963Z,15.38
2023-11-12T17:50:09.204Z,21.73
2023-11-12T17:54:10.977Z,15.20
2023-11-12T17:58:12.862Z,21.83
2023-11-12T18:02:14.589Z,14.68
2023-11-12T18:06:17.786Z,18.77
2023-11-12T18:10:20.640Z,19.45
2023-11-12T18:18:24.135Z,16.45
2023-11-12T18:22:27.120Z,19.63
2023-11-12T18:26:30.435Z,18.60
2023-11-12T18:30:32.625Z,13.68
2023-11-12T18:34:34.949Z,14.10
2023-11-12T18:38:37.690Z,14.57
2023-11-12T18:42:40.031Z,13.77
2023-11-12T18:46:44.180Z,21.30
2023-11-12T18:50:49.543Z,12.23
2023-11-12T18:54:53.039Z,13.90
2023-11-12T18:58:57.495Z,12.82
2023-11-12T19:03:00.735Z,11.15
2023-11-12T19:07:02.608Z,8.77
2023-11-12T19:11:05.108Z,10.70
2023-11-12T19:15:11.852Z,12.95
2023-11-12T19:19:14.050Z,10.35
2023-11-12T19:23:15.795Z,8.40
2023-11-12T19:27:18.029Z,12.63
2023-11-12T19:31:30.279Z,9.47
2023-11-12T19:35:35.642Z,11.32
2023-11-12T19:39:37.547Z,11.32
2023-11-12T19:43:39.347Z,12.45
2023-11-12T19:47:41.110Z,7.45
2023-11-12T19:51:43.283Z,10.75
2023-11-12T19:55:45.282Z,10.27
2023-11-12T19:59:47.211Z,9.30
2023-11-12T20:03:48.928Z,6.28
2023-11-12T20:07:51.543Z,5.85
2023-11-12T20:11:53.656Z,7.47
2023-11-12T20:15:56.488Z,5.53
2023-11-12T20:23:59.922Z,5.63
2023-11-12T20:28:01.740Z,4.57
2023-11-12T20:32:03.964Z,5.10
2023-11-12T20:36:06.195Z,5.97
2023-11-12T20:40:11.395Z,3.07
2023-11-12T20:44:14.583Z,7.55
2023-11-12T20:48:17.540Z,5.10
2023-11-12T20:52:20.259Z,7.22
2023-11-12T20:56:22.922Z,6.90
2023-11-12T21:00:24.778Z,7.13
2023-11-12T21:04:27.516Z,5.10
2023-11-12T21:12:32.457Z,5.95
2023-11-12T21:16:37.151Z,4.93
2023-11-12T21:20:39.486Z,6.13
2023-11-12T21:24:44.689Z,5.10
2023-11-12T21:28:47.267Z,7.33
2023-11-12T21:32:49.236Z,6.05
2023-11-12T21:36:51.575Z,5.87
2023-11-12T21:40:53.457Z,6.47
2023-11-12T21:44:55.337Z,13.63
2023-11-12T21:49:00.263Z,7.68
2023-11-12T21:53:02.322Z,7.68
2023-11-12T21:57:04.455Z,8.43
2023-11-12T22:01:06.351Z,8.43
2023-11-12T22:05:09.495Z,9.15
2023-11-12T22:09:15.302Z,7.75
2023-11-12T22:13:19.710Z,8.13
2023-11-12T22:17:21.807Z,8.75
2023-11-12T22:25:31.163Z,5.82
2023-11-12T22:29:33.977Z,4.45
2023-11-12T22:33:36.640Z,3.27
2023-11-12T22:37:39.086Z,4.65
2023-11-12T22:41:41.420Z,3.33
2023-11-12T22:49:46.868Z,2.72
2023-11-12T22:53:50.527Z,3.75
2023-11-12T22:57:54.475Z,4.18
2023-11-12T23:01:57.788Z,3.83
2023-11-12T23:06:00.956Z,2.92
2023-11-12T23:10:08.498Z,3.53
2023-11-12T23:14:10.611Z,3.90
2023-11-12T23:18:19.045Z,3.58
2023-11-12T23:22:20.987Z,4.30
2023-11-12T23:26:22.763Z,3.90
2023-11-12T23:30:24.686Z,5.80
2023-11-12T23:34:26.359Z,3.97
2023-11-12T23:38:31.865Z,1.88
2023-11-12T23:42:34.578Z,4.20
2023-11-12T23:46:36.377Z,1.85
2023-11-12T23:50:38.274Z,1.77
2023-11-12T23:54:40.124Z,1.90
2023-11-12T23:58:43.059Z,1.42
